createdAt,value
2018-11-03T00:01:37.631Z,17.57
2018-11-03T00:04:10.903Z,18.00
2018-11-03T00:06:39.965Z,17.30
2018-11-03T00:09:11.706Z,18.43
2018-11-03T00:11:41.213Z,19.63
2018-11-03T00:14:10.875Z,19.00
2018-11-03T00:16:40.047Z,19.10
2018-11-03T00:19:09.097Z,19.67
2018-11-03T00:21:46.389Z,19.40
2018-11-03T00:24:15.394Z,18.63
2018-11-03T00:26:45.142Z,18.67
2018-11-03T00:29:14.293Z,19.67
2018-11-03T00:31:44.248Z,20.13
2018-11-03T00:34:13.453Z,21.63
2018-11-03T00:36:42.553Z,20.97
2018-11-03T00:39:12.731Z,20.57
2018-11-03T00:41:43.057Z,22.03
2018-11-03T00:44:12.201Z,20.40
2018-11-03T00:46:41.456Z,21.60
2018-11-03T00:49:10.605Z,22.13
2018-11-03T00:51:40.866Z,22.03
2018-11-03T00:54:11.865Z,23.37
2018-11-03T00:56:45.069Z,21.90
2018-11-03T00:59:19.886Z,22.93
2018-11-03T01:01:52.086Z,21.97
2018-11-03T01:04:21.202Z,21.47
2018-11-03T01:06:51.712Z,21.17
2018-11-03T01:09:20.976Z,21.30
2018-11-03T01:11:51.102Z,21.73
2018-11-03T01:14:20.762Z,22.37
2018-11-03T01:16:53.589Z,21.90
2018-11-03T01:19:27.010Z,21.43
2018-11-03T01:22:00.212Z,23.90
2018-11-03T01:24:30.572Z,22.37
2018-11-03T01:26:59.940Z,21.00
2018-11-03T01:29:29.053Z,21.70
2018-11-03T01:31:58.535Z,22.10
2018-11-03T01:34:28.057Z,23.00
2018-11-03T01:36:57.315Z,23.10
2018-11-03T01:39:30.461Z,22.57
2018-11-03T01:41:59.684Z,24.03
2018-11-03T01:44:30.277Z,21.97
2018-11-03T01:47:02.193Z,23.37
2018-11-03T01:49:31.384Z,23.37
2018-11-03T01:52:00.821Z,23.20
2018-11-03T01:54:30.045Z,24.00
2018-11-03T01:56:59.119Z,25.17
2018-11-03T01:59:28.227Z,26.00
2018-11-03T02:01:57.768Z,25.63
2018-11-03T02:04:27.043Z,25.23
2018-11-03T02:06:56.575Z,29.23
2018-11-03T02:09:27.938Z,24.13
2018-11-03T02:11:57.377Z,25.23
2018-11-03T02:14:26.884Z,24.07
2018-11-03T02:16:58.756Z,23.47
2018-11-03T02:19:29.725Z,24.67
2018-11-03T02:21:59.332Z,23.57
2018-11-03T02:24:29.686Z,24.03
2018-11-03T02:26:58.817Z,25.83
2018-11-03T02:29:27.975Z,26.83
2018-11-03T02:31:58.759Z,25.73
2018-11-03T02:34:29.404Z,23.97
2018-11-03T02:36:58.801Z,25.73
2018-11-03T02:39:28.021Z,26.13
2018-11-03T02:41:58.667Z,25.37
2018-11-03T02:44:28.467Z,23.23
2018-11-03T02:46:57.655Z,24.00
2018-11-03T02:49:28.091Z,23.80
2018-11-03T02:52:00.279Z,25.97
2018-11-03T02:54:32.234Z,23.87
2018-11-03T02:57:01.470Z,23.83
2018-11-03T02:59:30.816Z,26.23
2018-11-03T03:02:00.030Z,25.17
2018-11-03T03:04:29.651Z,25.73
2018-11-03T03:06:59.081Z,23.77
2018-11-03T03:09:30.300Z,24.73
2018-11-03T03:12:00.700Z,26.70
2018-11-03T03:14:29.797Z,24.03
2018-11-03T03:17:00.434Z,25.93
2018-11-03T03:19:29.676Z,27.87
2018-11-03T03:21:59.959Z,27.60
2018-11-03T03:24:30.356Z,28.33
2018-11-03T03:27:02.925Z,28.60
2018-11-03T03:29:32.224Z,28.13
2018-11-03T03:32:05.584Z,32.10
2018-11-03T03:34:34.884Z,28.50
2018-11-03T03:37:04.113Z,28.93
2018-11-03T03:39:33.559Z,31.40
2018-11-03T03:42:03.756Z,29.70
2018-11-03T03:44:32.979Z,29.60
2018-11-03T03:47:02.097Z,29.10
2018-11-03T03:49:35.034Z,28.23
2018-11-03T03:52:05.254Z,28.67
2018-11-03T03:54:35.156Z,29.87
2018-11-03T03:57:04.882Z,28.03
2018-11-03T03:59:34.048Z,29.80
2018-11-03T04:02:03.186Z,26.90
2018-11-03T04:04:33.796Z,28.00
2018-11-03T04:07:03.221Z,28.43
2018-11-03T04:09:32.365Z,29.77
2018-11-03T04:12:01.512Z,31.70
2018-11-03T04:14:30.852Z,28.73
2018-11-03T04:17:00.086Z,29.73
2018-11-03T04:19:29.574Z,29.50
2018-11-03T04:21:59.100Z,28.37
2018-11-03T04:24:28.265Z,29.10
2018-11-03T04:26:57.396Z,29.23
2018-11-03T04:29:26.670Z,33.03
2018-11-03T04:31:55.964Z,29.57
2018-11-03T04:34:25.440Z,31.77
2018-11-03T04:36:54.545Z,30.27
2018-11-03T04:39:26.469Z,29.00
2018-11-03T04:41:56.677Z,30.60
2018-11-03T04:44:26.124Z,28.07
2018-11-03T04:46:55.233Z,31.73
2018-11-03T04:49:24.269Z,31.30
2018-11-03T04:51:55.360Z,30.77
2018-11-03T04:54:24.770Z,28.93
2018-11-03T04:56:54.247Z,29.87
2018-11-03T04:59:23.521Z,29.13
2018-11-03T05:01:52.738Z,31.70
2018-11-03T05:04:21.918Z,30.33
2018-11-03T05:06:51.157Z,30.73
2018-11-03T05:09:20.721Z,30.93
2018-11-03T05:11:49.860Z,29.97
2018-11-03T05:14:18.931Z,29.83
2018-11-03T05:16:48.092Z,30.13
2018-11-03T05:19:17.516Z,32.00
2018-11-03T05:21:46.667Z,29.47
2018-11-03T05:24:15.942Z,30.80
2018-11-03T05:26:45.200Z,29.63
2018-11-03T05:29:14.402Z,31.67
2018-11-03T05:31:43.542Z,32.73
2018-11-03T05:34:12.780Z,30.20
2018-11-03T05:36:42.269Z,34.07
2018-11-03T05:39:12.632Z,32.53
2018-11-03T05:41:42.633Z,37.37
2018-11-03T05:44:12.366Z,41.47
2018-11-03T05:46:41.810Z,38.03
2018-11-03T05:49:10.889Z,40.23
2018-11-03T05:51:40.047Z,38.83
2018-11-03T05:54:09.469Z,38.37
2018-11-03T05:56:38.733Z,38.20
2018-11-03T05:59:08.517Z,36.43
2018-11-03T06:01:37.756Z,34.83
2018-11-03T06:04:06.972Z,34.63
2018-11-03T06:06:36.101Z,37.13
2018-11-03T06:09:09.091Z,34.83
2018-11-03T06:11:38.647Z,35.30
2018-11-03T06:14:13.945Z,37.37
2018-11-03T06:16:47.595Z,40.63
2018-11-03T06:19:18.519Z,36.20
2018-11-03T06:21:47.629Z,36.47
2018-11-03T06:24:17.133Z,37.43
2018-11-03T06:26:47.021Z,36.07
2018-11-03T06:29:17.143Z,32.27
2018-11-03T06:31:47.528Z,31.23
2018-11-03T06:34:16.895Z,34.40
2018-11-03T06:36:47.798Z,33.10
2018-11-03T06:39:17.792Z,34.20
2018-11-03T06:41:47.570Z,36.47
2018-11-03T06:44:17.738Z,37.00
2018-11-03T06:46:47.808Z,35.27
2018-11-03T06:49:20.093Z,36.00
2018-11-03T06:51:50.184Z,32.47
2018-11-03T06:54:19.454Z,35.83
2018-11-03T06:56:48.720Z,35.50
2018-11-03T06:59:18.481Z,35.00
2018-11-03T07:01:49.197Z,32.73
2018-11-03T07:04:19.700Z,34.13
2018-11-03T07:06:49.426Z,36.07
2018-11-03T07:09:19.931Z,31.87
2018-11-03T07:11:53.999Z,31.50
2018-11-03T07:14:23.481Z,30.77
2018-11-03T07:16:52.569Z,34.67
2018-11-03T07:19:21.649Z,35.63
2018-11-03T07:21:50.909Z,30.23
2018-11-03T07:24:20.382Z,31.33
2018-11-03T07:26:51.621Z,30.63
2018-11-03T07:29:21.518Z,29.43
2018-11-03T07:31:53.161Z,30.47
2018-11-03T07:34:23.731Z,28.07
2018-11-03T07:36:53.596Z,44.03
2018-11-03T07:39:22.950Z,29.77
2018-11-03T07:41:55.964Z,28.00
2018-11-03T07:44:38.654Z,28.00
2018-11-03T07:47:09.488Z,28.30
2018-11-03T07:49:38.588Z,28.97
2018-11-03T07:52:08.042Z,28.27
2018-11-03T07:54:37.909Z,28.43
2018-11-03T07:57:07.134Z,31.27
2018-11-03T07:59:36.295Z,27.87
2018-11-03T08:02:06.445Z,31.90
2018-11-03T08:04:35.640Z,30.67
2018-11-03T08:07:05.524Z,29.50
2018-11-03T08:09:34.879Z,27.80
2018-11-03T08:12:10.985Z,29.97
2018-11-03T08:14:45.089Z,28.27
2018-11-03T08:17:15.463Z,28.17
2018-11-03T08:19:47.079Z,30.97
2018-11-03T08:22:17.162Z,27.53
2018-11-03T08:24:55.559Z,26.43
2018-11-03T08:27:26.640Z,25.37
2018-11-03T08:29:57.175Z,27.60
2018-11-03T08:32:29.354Z,29.63
2018-11-03T08:35:01.243Z,28.47
2018-11-03T08:37:31.007Z,28.83
2018-11-03T08:40:00.823Z,30.70
2018-11-03T08:42:31.109Z,28.67
2018-11-03T08:45:00.542Z,27.93
2018-11-03T08:47:29.998Z,28.07
2018-11-03T08:50:01.098Z,30.57
2018-11-03T08:52:33.360Z,31.03
2018-11-03T08:55:02.755Z,31.10
2018-11-03T08:57:32.462Z,30.93
2018-11-03T09:00:03.229Z,29.20
2018-11-03T09:02:32.595Z,29.90
2018-11-03T09:05:06.078Z,28.43
2018-11-03T09:07:37.835Z,27.77
2018-11-03T09:10:14.485Z,30.07
2018-11-03T09:12:45.377Z,28.63
2018-11-03T09:15:15.281Z,31.27
2018-11-03T09:17:49.466Z,30.17
2018-11-03T09:20:29.302Z,29.17
2018-11-03T09:23:04.353Z,28.43
2018-11-03T09:25:40.184Z,28.80
2018-11-03T09:28:10.857Z,28.23
2018-11-03T09:30:47.501Z,28.97
2018-11-03T09:33:16.771Z,29.30
2018-11-03T09:35:48.576Z,27.07
2018-11-03T09:38:18.660Z,27.80
2018-11-03T09:40:48.118Z,28.33
2018-11-03T09:43:24.452Z,28.33
2018-11-03T09:45:54.372Z,33.33
2018-11-03T09:48:23.743Z,32.33
2018-11-03T09:50:53.029Z,32.03
2018-11-03T09:53:22.665Z,27.23
2018-11-03T09:55:51.824Z,25.73
2018-11-03T09:58:21.506Z,25.60
2018-11-03T10:00:50.790Z,24.23
2018-11-03T10:03:20.400Z,22.17
2018-11-03T10:05:59.950Z,24.13
2018-11-03T10:08:32.166Z,23.93
2018-11-03T10:11:08.084Z,23.73
2018-11-03T10:16:13.807Z,24.82
2018-11-03T10:18:48.282Z,22.07
2018-11-03T10:21:19.755Z,23.67
2018-11-03T10:23:53.543Z,21.17
2018-11-03T10:26:23.195Z,19.10
2018-11-03T10:28:57.142Z,19.52
2018-11-03T10:31:26.402Z,18.87
2018-11-03T10:34:01.166Z,16.87
2018-11-03T10:36:31.607Z,16.37
2018-11-03T10:39:02.008Z,18.45
2018-11-03T10:41:31.168Z,19.92
2018-11-03T10:44:00.206Z,16.73
2018-11-03T10:46:29.323Z,18.42
2018-11-03T10:48:59.159Z,21.62
2018-11-03T10:51:28.353Z,18.00
2018-11-03T10:53:57.870Z,18.07
2018-11-03T10:56:27.224Z,21.82
2018-11-03T10:58:56.630Z,16.42
2018-11-03T11:01:31.107Z,14.53
2018-11-03T11:04:05.596Z,13.40
2018-11-03T11:07:38.499Z,15.48
2018-11-03T11:10:14.995Z,14.70
2018-11-03T11:12:48.768Z,15.05
2018-11-03T11:15:19.634Z,13.62
2018-11-03T11:17:48.916Z,11.10
2018-11-03T11:20:18.590Z,12.13
2018-11-03T11:22:48.403Z,10.72
2018-11-03T11:25:17.856Z,11.22
2018-11-03T11:27:47.481Z,17.62
2018-11-03T11:30:16.752Z,10.68
2018-11-03T11:32:45.834Z,15.85
2018-11-03T11:35:14.825Z,19.62
2018-11-03T11:37:44.986Z,10.28
2018-11-03T11:40:14.486Z,9.88
2018-11-03T11:42:44.401Z,10.30
2018-11-03T11:45:13.511Z,12.98
2018-11-03T11:47:45.051Z,10.20
2018-11-03T11:50:14.767Z,10.18
2018-11-03T11:52:44.155Z,9.70
2018-11-03T11:55:13.965Z,13.03
2018-11-03T11:57:42.943Z,13.25
2018-11-03T12:00:12.463Z,11.88
2018-11-03T12:02:41.673Z,8.95
2018-11-03T12:05:11.727Z,11.70
2018-11-03T12:07:41.095Z,10.03
2018-11-03T12:10:10.228Z,10.25
2018-11-03T12:12:40.506Z,8.98
2018-11-03T12:15:10.512Z,9.38
2018-11-03T12:17:40.760Z,10.63
2018-11-03T12:20:10.602Z,10.43
2018-11-03T12:22:40.882Z,9.93
2018-11-03T12:25:12.769Z,10.13
2018-11-03T12:27:42.712Z,11.13
2018-11-03T12:30:15.333Z,12.77
2018-11-03T12:32:44.738Z,11.50
2018-11-03T12:35:17.890Z,15.97
2018-11-03T12:37:53.493Z,12.83
2018-11-03T12:40:26.180Z,11.60
2018-11-03T12:43:03.876Z,11.70
2018-11-03T12:45:33.750Z,9.27
2018-11-03T12:48:03.765Z,10.67
2018-11-03T12:50:32.905Z,13.60
2018-11-03T12:53:02.627Z,12.63
2018-11-03T12:55:32.771Z,11.50
2018-11-03T12:58:01.851Z,13.87
2018-11-03T13:00:30.976Z,10.20
2018-11-03T13:03:02.833Z,13.73
2018-11-03T13:05:31.878Z,15.23
2018-11-03T13:08:01.016Z,12.07
2018-11-03T13:10:31.360Z,14.40
2018-11-03T13:13:00.401Z,11.13
2018-11-03T13:15:30.513Z,9.43
2018-11-03T13:17:59.616Z,13.07
2018-11-03T13:20:28.644Z,12.90
2018-11-03T13:22:58.897Z,10.47
2018-11-03T13:25:31.470Z,10.43
2018-11-03T13:28:00.535Z,12.37
2018-11-03T13:30:30.008Z,11.43
2018-11-03T13:32:59.338Z,11.97
2018-11-03T13:35:28.604Z,12.30
2018-11-03T13:37:58.416Z,11.37
2018-11-03T13:40:28.791Z,12.23
2018-11-03T13:43:00.098Z,13.23
2018-11-03T13:45:31.733Z,10.97
2018-11-03T13:48:00.898Z,14.53
2018-11-03T13:50:30.921Z,10.47
2018-11-03T13:53:00.183Z,11.17
2018-11-03T13:55:29.243Z,9.07
2018-11-03T13:58:00.090Z,10.80
2018-11-03T14:00:29.205Z,9.43
2018-11-03T14:02:58.414Z,8.50
2018-11-03T14:05:31.729Z,10.40
2018-11-03T14:08:02.964Z,12.77
2018-11-03T14:10:35.089Z,8.00
2018-11-03T14:13:04.329Z,7.57
2018-11-03T14:15:38.782Z,8.30
2018-11-03T14:18:08.302Z,8.33
2018-11-03T14:20:37.362Z,9.77
2018-11-03T14:23:07.441Z,10.27
2018-11-03T14:25:37.633Z,9.10
2018-11-03T14:28:07.362Z,10.03
2018-11-03T14:30:37.437Z,13.03
2018-11-03T14:33:10.729Z,10.37
2018-11-03T14:35:40.810Z,14.57
2018-11-03T14:38:12.225Z,10.43
2018-11-03T14:40:43.473Z,10.03
2018-11-03T14:43:15.259Z,9.00
2018-11-03T14:45:48.057Z,9.10
2018-11-03T14:48:18.491Z,9.67
2018-11-03T14:50:47.934Z,12.00
2018-11-03T14:53:17.037Z,12.07
2018-11-03T14:55:46.105Z,10.93
2018-11-03T14:58:16.501Z,10.77
2018-11-03T15:00:46.994Z,9.17
2018-11-03T15:03:16.272Z,11.37
2018-11-03T15:05:45.522Z,11.93
2018-11-03T15:08:14.694Z,10.73
2018-11-03T15:10:45.057Z,12.30
2018-11-03T15:15:57.964Z,10.43
2018-11-03T15:21:39.862Z,11.53
2018-11-03T15:24:16.261Z,12.07
2018-11-03T15:26:58.987Z,7.80
2018-11-03T15:35:10.556Z,8.67
2018-11-03T15:37:49.067Z,12.10
2018-11-03T15:43:24.056Z,8.20
2018-11-03T15:46:06.661Z,9.03
2018-11-03T15:51:33.554Z,6.87
2018-11-03T15:54:08.338Z,12.87
2018-11-03T15:56:38.038Z,13.37
2018-11-03T15:59:14.338Z,11.00
2018-11-03T16:02:01.799Z,10.83
2018-11-03T16:04:37.401Z,7.67
2018-11-03T16:07:14.958Z,9.53
2018-11-03T16:09:53.798Z,11.23
2018-11-03T16:12:29.409Z,10.50
2018-11-03T16:15:08.495Z,10.43
2018-11-03T16:17:40.797Z,12.00
2018-11-03T16:20:12.569Z,13.37
2018-11-03T16:22:44.843Z,16.03
2018-11-03T16:25:14.190Z,10.93
2018-11-03T16:27:43.236Z,10.63
2018-11-03T16:30:19.220Z,12.43
2018-11-03T16:32:56.010Z,15.23
2018-11-03T16:35:35.139Z,15.50
2018-11-03T16:38:11.009Z,11.10
2018-11-03T16:40:42.779Z,12.13
2018-11-03T16:43:15.401Z,13.17
2018-11-03T16:45:51.903Z,12.60
2018-11-03T16:48:41.664Z,15.00
2018-11-03T16:51:15.337Z,12.70
2018-11-03T16:53:51.785Z,11.47
2018-11-03T16:56:33.341Z,12.83
2018-11-03T16:59:15.838Z,12.47
2018-11-03T17:01:58.003Z,10.97
2018-11-03T17:04:43.571Z,14.00
2018-11-03T17:07:18.657Z,14.60
2018-11-03T17:09:51.799Z,16.60
2018-11-03T17:12:22.048Z,19.60
2018-11-03T17:14:56.916Z,15.23
2018-11-03T17:17:30.968Z,12.97
2018-11-03T17:20:18.944Z,14.23
2018-11-03T17:23:11.397Z,12.33
2018-11-03T17:28:58.835Z,14.80
2018-11-03T17:31:50.618Z,15.23
2018-11-03T17:37:23.358Z,16.90
2018-11-03T17:42:42.332Z,13.40
2018-11-03T17:45:15.288Z,17.63
2018-11-03T17:47:48.471Z,17.43
2018-11-03T17:50:24.469Z,15.30
2018-11-03T17:53:00.748Z,15.57
2018-11-03T17:55:31.359Z,17.50
2018-11-03T17:58:05.805Z,17.77
2018-11-03T18:00:39.788Z,15.83
2018-11-03T18:03:13.565Z,19.10
2018-11-03T18:05:48.722Z,16.50
2018-11-03T18:08:27.528Z,19.43
2018-11-03T18:11:06.828Z,16.17
2018-11-03T18:13:50.571Z,21.50
2018-11-03T18:16:22.721Z,20.43
2018-11-03T18:18:52.223Z,13.77
2018-11-03T18:21:26.546Z,20.30
2018-11-03T18:23:58.442Z,22.97
2018-11-03T18:26:32.221Z,19.80
2018-11-03T18:29:02.444Z,18.70
2018-11-03T18:31:37.933Z,15.57
2018-11-03T18:34:10.538Z,18.63
2018-11-03T18:36:45.544Z,17.80
2018-11-03T18:39:17.090Z,16.37
2018-11-03T18:41:49.702Z,18.13
2018-11-03T18:44:20.872Z,16.10
2018-11-03T18:46:52.038Z,16.33
2018-11-03T18:49:27.220Z,20.17
2018-11-03T18:51:59.443Z,17.77
2018-11-03T18:54:30.774Z,17.77
2018-11-03T18:57:13.292Z,21.43
2018-11-03T18:59:50.115Z,20.37
2018-11-03T19:02:22.083Z,34.63
2018-11-03T19:04:58.822Z,28.37
2018-11-03T19:07:29.328Z,26.70
2018-11-03T19:10:10.068Z,25.47
2018-11-03T19:12:44.035Z,28.20
2018-11-03T19:15:20.964Z,23.17
2018-11-03T19:17:51.237Z,23.53
2018-11-03T19:20:29.128Z,27.03
2018-11-03T19:22:59.406Z,21.63
2018-11-03T19:25:31.630Z,19.60
2018-11-03T19:28:03.227Z,24.27
2018-11-03T19:30:36.634Z,20.37
2018-11-03T19:33:06.752Z,21.53
2018-11-03T19:35:36.320Z,23.13
2018-11-03T19:38:06.996Z,20.93
2018-11-03T19:40:37.026Z,20.40
2018-11-03T19:43:07.814Z,24.97
2018-11-03T19:45:37.625Z,22.17
2018-11-03T19:48:09.302Z,22.83
2018-11-03T19:50:38.770Z,25.27
2018-11-03T19:53:09.415Z,20.77
2018-11-03T19:55:40.017Z,20.67
2018-11-03T19:58:09.432Z,24.80
2018-11-03T20:00:39.384Z,24.03
2018-11-03T20:03:08.663Z,19.20
2018-11-03T20:05:38.023Z,23.60
2018-11-03T20:08:07.336Z,26.40
2018-11-03T20:10:36.625Z,23.83
2018-11-03T20:13:05.868Z,23.17
2018-11-03T20:15:36.222Z,28.13
2018-11-03T20:18:06.068Z,21.33
2018-11-03T20:20:35.890Z,28.97
2018-11-03T20:23:05.589Z,26.23
2018-11-03T20:25:35.576Z,22.40
2018-11-03T20:28:15.468Z,25.07
2018-11-03T20:30:49.116Z,24.83
2018-11-03T20:33:22.496Z,24.40
2018-11-03T20:35:55.936Z,27.70
2018-11-03T20:38:27.684Z,26.20
2018-11-03T20:41:00.182Z,24.07
2018-11-03T20:43:31.384Z,26.07
2018-11-03T20:46:08.143Z,23.83
2018-11-03T20:48:41.953Z,26.23
2018-11-03T20:51:14.181Z,26.37
2018-11-03T20:53:46.712Z,22.47
2018-11-03T20:56:17.376Z,24.93
2018-11-03T20:58:47.521Z,31.20
2018-11-03T21:01:18.865Z,25.97
2018-11-03T21:03:50.999Z,27.93
2018-11-03T21:06:20.314Z,24.17
2018-11-03T21:08:50.546Z,27.67
2018-11-03T21:11:21.586Z,24.33
2018-11-03T21:13:51.771Z,27.33
2018-11-03T21:16:26.347Z,28.03
2018-11-03T21:18:58.956Z,24.77
2018-11-03T21:21:29.487Z,25.00
2018-11-03T21:23:58.682Z,21.93
2018-11-03T21:26:29.299Z,25.60
2018-11-03T21:29:00.012Z,21.40
2018-11-03T21:31:34.267Z,26.10
2018-11-03T21:34:03.331Z,25.17
2018-11-03T21:36:33.921Z,29.00
2018-11-03T21:39:07.197Z,23.07
2018-11-03T21:41:37.024Z,21.93
2018-11-03T21:44:07.626Z,24.20
2018-11-03T21:46:38.552Z,26.57
2018-11-03T21:49:11.242Z,22.93
2018-11-03T21:51:46.611Z,25.87
2018-11-03T21:54:19.182Z,22.50
2018-11-03T21:56:49.665Z,28.37
2018-11-03T21:59:24.083Z,22.53
2018-11-03T22:01:56.284Z,22.17
2018-11-03T22:04:31.902Z,22.03
2018-11-03T22:07:07.978Z,21.13
2018-11-03T22:09:39.389Z,22.97
2018-11-03T22:12:11.786Z,20.60
2018-11-03T22:14:43.807Z,22.70
2018-11-03T22:20:09.277Z,25.00
2018-11-03T22:27:44.011Z,22.50
2018-11-03T22:30:17.448Z,21.13
2018-11-03T22:32:51.002Z,22.80
2018-11-03T22:35:32.097Z,24.00
2018-11-03T22:44:40.284Z,21.10
2018-11-03T22:47:13.129Z,22.07
2018-11-03T22:49:42.526Z,22.20
2018-11-03T22:52:13.567Z,21.67
2018-11-03T22:54:45.041Z,24.00
2018-11-03T22:57:15.449Z,23.97
2018-11-03T22:59:45.507Z,23.10
2018-11-03T23:02:14.494Z,21.03
2018-11-03T23:04:43.598Z,24.03
2018-11-03T23:07:13.164Z,19.87
2018-11-03T23:09:45.362Z,23.67
2018-11-03T23:26:13.327Z,24.97
2018-11-03T23:28:44.682Z,23.53
2018-11-03T23:31:18.321Z,21.50
2018-11-03T23:36:37.992Z,22.30
2018-11-03T23:39:14.063Z,24.83
2018-11-03T23:41:50.252Z,27.43
2018-11-03T23:44:23.809Z,27.67
2018-11-03T23:46:54.807Z,24.37
2018-11-03T23:49:24.898Z,25.70
2018-11-03T23:51:59.764Z,26.37
2018-11-03T23:54:30.808Z,25.67
2018-11-03T23:57:01.436Z,25.80
2018-11-03T23:59:34.585Z,27.70
